sensor_id;sensor_type;location;lat;lon;timestamp;P1;durP1;ratioP1;P2;durP2;ratioP2
38465;SDS011;24244;51.950;5.902;2022-10-16T00:00:53;7.78;;;2.70;;
38465;SDS011;24244;51.950;5.902;2022-10-16T00:03:19;7.95;;;2.70;;
38465;SDS011;24244;51.950;5.902;2022-10-16T00:05:49;6.80;;;2.50;;
38465;SDS011;24244;51.950;5.902;2022-10-16T00:08:17;7.30;;;2.70;;
38465;SDS011;24244;51.950;5.902;2022-10-16T00:10:44;6.90;;;2.30;;
38465;SDS011;24244;51.950;5.902;2022-10-16T00:13:10;7.60;;;2.40;;
38465;SDS011;24244;51.950;5.902;2022-10-16T00:15:37;5.63;;;2.17;;
38465;SDS011;24244;51.950;5.902;2022-10-16T00:18:05;6.00;;;2.40;;
38465;SDS011;24244;51.950;5.902;2022-10-16T00:20:33;8.77;;;2.65;;
38465;SDS011;24244;51.950;5.902;2022-10-16T00:23:01;6.07;;;2.60;;
38465;SDS011;24244;51.950;5.902;2022-10-16T00:25:29;6.63;;;2.60;;
38465;SDS011;24244;51.950;5.902;2022-10-16T00:27:58;8.02;;;2.70;;
38465;SDS011;24244;51.950;5.902;2022-10-16T00:30:25;7.28;;;3.13;;
38465;SDS011;24244;51.950;5.902;2022-10-16T00:32:53;8.70;;;2.88;;
38465;SDS011;24244;51.950;5.902;2022-10-16T00:35:20;8.30;;;2.70;;
38465;SDS011;24244;51.950;5.902;2022-10-16T00:37:47;7.63;;;2.85;;
38465;SDS011;24244;51.950;5.902;2022-10-16T00:40:14;7.05;;;2.97;;
38465;SDS011;24244;51.950;5.902;2022-10-16T00:42:42;6.82;;;3.03;;
38465;SDS011;24244;51.950;5.902;2022-10-16T00:45:09;6.57;;;2.80;;
38465;SDS011;24244;51.950;5.902;2022-10-16T00:47:37;6.63;;;3.00;;
38465;SDS011;24244;51.950;5.902;2022-10-16T00:50:08;6.20;;;2.60;;
38465;SDS011;24244;51.950;5.902;2022-10-16T00:52:38;9.50;;;3.47;;
38465;SDS011;24244;51.950;5.902;2022-10-16T00:55:09;6.82;;;2.72;;
38465;SDS011;24244;51.950;5.902;2022-10-16T00:57:36;6.72;;;2.80;;
38465;SDS011;24244;51.950;5.902;2022-10-16T01:00:06;7.10;;;2.95;;
38465;SDS011;24244;51.950;5.902;2022-10-16T01:02:35;6.55;;;2.60;;
38465;SDS011;24244;51.950;5.902;2022-10-16T01:05:02;7.65;;;3.40;;
38465;SDS011;24244;51.950;5.902;2022-10-16T01:07:35;8.27;;;3.10;;
38465;SDS011;24244;51.950;5.902;2022-10-16T01:10:09;8.13;;;3.03;;
38465;SDS011;24244;51.950;5.902;2022-10-16T01:12:45;7.07;;;3.25;;
38465;SDS011;24244;51.950;5.902;2022-10-16T01:15:18;7.65;;;2.88;;
38465;SDS011;24244;51.950;5.902;2022-10-16T01:17:52;6.88;;;3.00;;
38465;SDS011;24244;51.950;5.902;2022-10-16T01:20:25;9.10;;;3.15;;
38465;SDS011;24244;51.950;5.902;2022-10-16T01:22:56;8.13;;;3.50;;
38465;SDS011;24244;51.950;5.902;2022-10-16T01:25:32;8.40;;;2.72;;
38465;SDS011;24244;51.950;5.902;2022-10-16T01:28:08;6.93;;;2.85;;
38465;SDS011;24244;51.950;5.902;2022-10-16T01:30:40;7.90;;;3.20;;
38465;SDS011;24244;51.950;5.902;2022-10-16T01:33:12;8.20;;;3.20;;
38465;SDS011;24244;51.950;5.902;2022-10-16T01:35:45;6.47;;;2.75;;
38465;SDS011;24244;51.950;5.902;2022-10-16T01:38:17;7.03;;;2.95;;
38465;SDS011;24244;51.950;5.902;2022-10-16T01:40:49;7.10;;;3.00;;
38465;SDS011;24244;51.950;5.902;2022-10-16T01:43:20;7.22;;;3.00;;
38465;SDS011;24244;51.950;5.902;2022-10-16T01:45:51;6.18;;;2.65;;
38465;SDS011;24244;51.950;5.902;2022-10-16T01:48:20;6.70;;;3.13;;
38465;SDS011;24244;51.950;5.902;2022-10-16T01:50:56;6.65;;;2.90;;
38465;SDS011;24244;51.950;5.902;2022-10-16T01:53:26;8.43;;;3.28;;
38465;SDS011;24244;51.950;5.902;2022-10-16T01:55:54;9.20;;;3.40;;
38465;SDS011;24244;51.950;5.902;2022-10-16T01:58:25;7.78;;;3.03;;
38465;SDS011;24244;51.950;5.902;2022-10-16T02:00:54;6.05;;;2.50;;
38465;SDS011;24244;51.950;5.902;2022-10-16T02:03:21;6.70;;;2.92;;
38465;SDS011;24244;51.950;5.902;2022-10-16T02:05:49;6.40;;;3.20;;
38465;SDS011;24244;51.950;5.902;2022-10-16T02:08:19;6.35;;;2.80;;
38465;SDS011;24244;51.950;5.902;2022-10-16T02:10:48;7.00;;;2.92;;
38465;SDS011;24244;51.950;5.902;2022-10-16T02:13:17;7.82;;;2.72;;
38465;SDS011;24244;51.950;5.902;2022-10-16T02:15:50;8.15;;;3.05;;
38465;SDS011;24244;51.950;5.902;2022-10-16T02:18:16;6.85;;;2.53;;
38465;SDS011;24244;51.950;5.902;2022-10-16T02:20:45;6.43;;;2.60;;
38465;SDS011;24244;51.950;5.902;2022-10-16T02:23:18;7.25;;;2.92;;
38465;SDS011;24244;51.950;5.902;2022-10-16T02:25:50;5.43;;;2.15;;
38465;SDS011;24244;51.950;5.902;2022-10-16T02:28:22;6.25;;;2.70;;
38465;SDS011;24244;51.950;5.902;2022-10-16T02:30:55;5.70;;;2.50;;
38465;SDS011;24244;51.950;5.902;2022-10-16T02:33:25;8.38;;;2.90;;
38465;SDS011;24244;51.950;5.902;2022-10-16T02:35:54;5.63;;;2.22;;
38465;SDS011;24244;51.950;5.902;2022-10-16T02:38:22;6.32;;;2.40;;
38465;SDS011;24244;51.950;5.902;2022-10-16T02:40:51;6.88;;;2.58;;
38465;SDS011;24244;51.950;5.902;2022-10-16T02:43:18;7.18;;;2.78;;
38465;SDS011;24244;51.950;5.902;2022-10-16T02:45:47;8.82;;;3.08;;
38465;SDS011;24244;51.950;5.902;2022-10-16T02:48:17;7.43;;;2.58;;
38465;SDS011;24244;51.950;5.902;2022-10-16T02:50:44;7.40;;;2.65;;
38465;SDS011;24244;51.950;5.902;2022-10-16T02:53:10;6.20;;;2.60;;
38465;SDS011;24244;51.950;5.902;2022-10-16T02:55:37;6.82;;;2.53;;
38465;SDS011;24244;51.950;5.902;2022-10-16T02:58:04;5.47;;;2.20;;
38465;SDS011;24244;51.950;5.902;2022-10-16T03:00:30;5.47;;;2.13;;
38465;SDS011;24244;51.950;5.902;2022-10-16T03:02:57;5.95;;;2.30;;
38465;SDS011;24244;51.950;5.902;2022-10-16T03:05:25;5.68;;;2.17;;
38465;SDS011;24244;51.950;5.902;2022-10-16T03:07:52;5.78;;;2.10;;
38465;SDS011;24244;51.950;5.902;2022-10-16T03:10:19;5.88;;;2.28;;
38465;SDS011;24244;51.950;5.902;2022-10-16T03:12:46;5.65;;;1.90;;
38465;SDS011;24244;51.950;5.902;2022-10-16T03:15:12;5.00;;;2.08;;
38465;SDS011;24244;51.950;5.902;2022-10-16T03:17:39;6.13;;;2.00;;
38465;SDS011;24244;51.950;5.902;2022-10-16T03:20:07;6.88;;;1.80;;
38465;SDS011;24244;51.950;5.902;2022-10-16T03:22:35;6.68;;;1.95;;
38465;SDS011;24244;51.950;5.902;2022-10-16T03:25:02;5.13;;;1.90;;
38465;SDS011;24244;51.950;5.902;2022-10-16T03:27:29;5.65;;;1.90;;
38465;SDS011;24244;51.950;5.902;2022-10-16T03:29:56;6.57;;;2.10;;
38465;SDS011;24244;51.950;5.902;2022-10-16T03:32:24;6.32;;;2.10;;
38465;SDS011;24244;51.950;5.902;2022-10-16T03:34:52;6.55;;;2.30;;
38465;SDS011;24244;51.950;5.902;2022-10-16T03:37:20;6.55;;;2.28;;
38465;SDS011;24244;51.950;5.902;2022-10-16T03:39:48;5.32;;;2.00;;
38465;SDS011;24244;51.950;5.902;2022-10-16T03:42:15;5.90;;;2.17;;
38465;SDS011;24244;51.950;5.902;2022-10-16T03:44:41;4.95;;;2.00;;
38465;SDS011;24244;51.950;5.902;2022-10-16T03:47:09;6.05;;;2.15;;
38465;SDS011;24244;51.950;5.902;2022-10-16T03:49:36;6.57;;;2.33;;
38465;SDS011;24244;51.950;5.902;2022-10-16T03:52:02;5.18;;;1.85;;
38465;SDS011;24244;51.950;5.902;2022-10-16T03:54:29;5.35;;;1.90;;
38465;SDS011;24244;51.950;5.902;2022-10-16T03:56:57;4.95;;;1.90;;
38465;SDS011;24244;51.950;5.902;2022-10-16T03:59:24;7.35;;;2.17;;
38465;SDS011;24244;51.950;5.902;2022-10-16T04:01:51;5.43;;;2.25;;
38465;SDS011;24244;51.950;5.902;2022-10-16T04:04:18;4.93;;;1.92;;
38465;SDS011;24244;51.950;5.902;2022-10-16T04:06:44;4.93;;;1.73;;
38465;SDS011;24244;51.950;5.902;2022-10-16T04:09:11;5.78;;;2.03;;
38465;SDS011;24244;51.950;5.902;2022-10-16T04:11:38;5.72;;;1.95;;
38465;SDS011;24244;51.950;5.902;2022-10-16T04:14:06;6.10;;;1.70;;
38465;SDS011;24244;51.950;5.902;2022-10-16T04:16:33;5.22;;;1.80;;
38465;SDS011;24244;51.950;5.902;2022-10-16T04:19:00;4.72;;;1.88;;
38465;SDS011;24244;51.950;5.902;2022-10-16T04:21:28;4.68;;;1.73;;
38465;SDS011;24244;51.950;5.902;2022-10-16T04:23:54;5.65;;;1.95;;
38465;SDS011;24244;51.950;5.902;2022-10-16T04:26:21;5.53;;;2.00;;
38465;SDS011;24244;51.950;5.902;2022-10-16T04:28:48;6.05;;;2.35;;
38465;SDS011;24244;51.950;5.902;2022-10-16T04:31:16;5.20;;;1.88;;
38465;SDS011;24244;51.950;5.902;2022-10-16T04:33:43;6.60;;;2.05;;
38465;SDS011;24244;51.950;5.902;2022-10-16T04:36:10;4.85;;;1.90;;
38465;SDS011;24244;51.950;5.902;2022-10-16T04:38:37;5.53;;;1.77;;
38465;SDS011;24244;51.950;5.902;2022-10-16T04:41:05;5.05;;;1.92;;
38465;SDS011;24244;51.950;5.902;2022-10-16T04:43:33;5.40;;;2.05;;
38465;SDS011;24244;51.950;5.902;2022-10-16T04:46:00;4.75;;;1.90;;
38465;SDS011;24244;51.950;5.902;2022-10-16T04:48:29;4.32;;;1.80;;
38465;SDS011;24244;51.950;5.902;2022-10-16T04:50:56;5.32;;;1.83;;
38465;SDS011;24244;51.950;5.902;2022-10-16T04:53:22;5.82;;;1.90;;
38465;SDS011;24244;51.950;5.902;2022-10-16T04:55:51;5.03;;;2.00;;
38465;SDS011;24244;51.950;5.902;2022-10-16T04:58:17;6.03;;;1.77;;
38465;SDS011;24244;51.950;5.902;2022-10-16T05:00:44;5.35;;;1.95;;
38465;SDS011;24244;51.950;5.902;2022-10-16T05:03:12;4.43;;;1.80;;
38465;SDS011;24244;51.950;5.902;2022-10-16T05:05:43;4.82;;;1.90;;
38465;SDS011;24244;51.950;5.902;2022-10-16T05:08:11;8.27;;;2.20;;
38465;SDS011;24244;51.950;5.902;2022-10-16T05:10:38;6.03;;;1.67;;
38465;SDS011;24244;51.950;5.902;2022-10-16T05:13:05;5.82;;;1.98;;
38465;SDS011;24244;51.950;5.902;2022-10-16T05:15:32;5.50;;;2.03;;
38465;SDS011;24244;51.950;5.902;2022-10-16T05:17:59;5.30;;;1.95;;
38465;SDS011;24244;51.950;5.902;2022-10-16T05:20:26;4.90;;;1.77;;
38465;SDS011;24244;51.950;5.902;2022-10-16T05:22:54;5.68;;;2.08;;
38465;SDS011;24244;51.950;5.902;2022-10-16T05:25:21;6.50;;;1.85;;
38465;SDS011;24244;51.950;5.902;2022-10-16T05:27:48;4.68;;;1.85;;
38465;SDS011;24244;51.950;5.902;2022-10-16T05:30:15;5.10;;;1.70;;
38465;SDS011;24244;51.950;5.902;2022-10-16T05:32:45;5.35;;;2.05;;
38465;SDS011;24244;51.950;5.902;2022-10-16T05:35:13;4.65;;;1.70;;
38465;SDS011;24244;51.950;5.902;2022-10-16T05:37:39;4.75;;;1.92;;
38465;SDS011;24244;51.950;5.902;2022-10-16T05:40:13;5.40;;;1.92;;
38465;SDS011;24244;51.950;5.902;2022-10-16T05:42:41;5.13;;;1.77;;
38465;SDS011;24244;51.950;5.902;2022-10-16T05:45:09;5.25;;;2.00;;
38465;SDS011;24244;51.950;5.902;2022-10-16T05:47:37;5.10;;;2.17;;
38465;SDS011;24244;51.950;5.902;2022-10-16T05:50:04;6.22;;;2.10;;
38465;SDS011;24244;51.950;5.902;2022-10-16T05:52:31;5.07;;;2.22;;
38465;SDS011;24244;51.950;5.902;2022-10-16T05:54:58;5.35;;;2.20;;
38465;SDS011;24244;51.950;5.902;2022-10-16T05:57:36;4.82;;;2.15;;
38465;SDS011;24244;51.950;5.902;2022-10-16T06:00:06;5.68;;;2.05;;
38465;SDS011;24244;51.950;5.902;2022-10-16T06:02:34;5.25;;;2.08;;
38465;SDS011;24244;51.950;5.902;2022-10-16T06:05:01;4.93;;;2.03;;
38465;SDS011;24244;51.950;5.902;2022-10-16T06:07:27;4.53;;;2.00;;
38465;SDS011;24244;51.950;5.902;2022-10-16T06:09:55;5.97;;;2.13;;
38465;SDS011;24244;51.950;5.902;2022-10-16T06:12:21;5.95;;;2.20;;
38465;SDS011;24244;51.950;5.902;2022-10-16T06:14:50;5.20;;;2.00;;
38465;SDS011;24244;51.950;5.902;2022-10-16T06:17:16;5.60;;;2.25;;
38465;SDS011;24244;51.950;5.902;2022-10-16T06:19:43;5.25;;;2.10;;
38465;SDS011;24244;51.950;5.902;2022-10-16T06:22:10;6.97;;;2.30;;
38465;SDS011;24244;51.950;5.902;2022-10-16T06:24:37;5.53;;;2.10;;
38465;SDS011;24244;51.950;5.902;2022-10-16T06:27:04;5.38;;;2.03;;
38465;SDS011;24244;51.950;5.902;2022-10-16T06:29:31;5.97;;;2.05;;
38465;SDS011;24244;51.950;5.902;2022-10-16T06:31:59;6.32;;;2.22;;
38465;SDS011;24244;51.950;5.902;2022-10-16T06:34:26;5.72;;;2.20;;
38465;SDS011;24244;51.950;5.902;2022-10-16T06:36:52;4.80;;;1.88;;
38465;SDS011;24244;51.950;5.902;2022-10-16T06:39:22;6.60;;;2.47;;
38465;SDS011;24244;51.950;5.902;2022-10-16T06:41:49;7.13;;;2.30;;
38465;SDS011;24244;51.950;5.902;2022-10-16T06:44:16;7.28;;;2.03;;
38465;SDS011;24244;51.950;5.902;2022-10-16T06:46:42;5.93;;;2.10;;
38465;SDS011;24244;51.950;5.902;2022-10-16T06:49:10;5.78;;;1.90;;
38465;SDS011;24244;51.950;5.902;2022-10-16T06:51:37;6.78;;;2.10;;
38465;SDS011;24244;51.950;5.902;2022-10-16T06:54:08;5.18;;;2.13;;
38465;SDS011;24244;51.950;5.902;2022-10-16T06:56:35;5.25;;;2.00;;
38465;SDS011;24244;51.950;5.902;2022-10-16T06:59:03;5.68;;;2.10;;
38465;SDS011;24244;51.950;5.902;2022-10-16T07:01:30;7.28;;;2.30;;
38465;SDS011;24244;51.950;5.902;2022-10-16T07:03:59;5.63;;;2.13;;
38465;SDS011;24244;51.950;5.902;2022-10-16T07:06:30;5.60;;;2.00;;
38465;SDS011;24244;51.950;5.902;2022-10-16T07:08:58;6.32;;;1.77;;
38465;SDS011;24244;51.950;5.902;2022-10-16T07:13:53;5.95;;;2.08;;
38465;SDS011;24244;51.950;5.902;2022-10-16T07:16:22;8.73;;;2.03;;
38465;SDS011;24244;51.950;5.902;2022-10-16T07:18:50;4.97;;;2.05;;
38465;SDS011;24244;51.950;5.902;2022-10-16T07:21:21;7.45;;;2.55;;
38465;SDS011;24244;51.950;5.902;2022-10-16T07:23:51;8.10;;;2.42;;
38465;SDS011;24244;51.950;5.902;2022-10-16T07:26:18;6.28;;;2.53;;
38465;SDS011;24244;51.950;5.902;2022-10-16T07:28:45;6.55;;;2.17;;
38465;SDS011;24244;51.950;5.902;2022-10-16T07:31:12;6.55;;;2.47;;
38465;SDS011;24244;51.950;5.902;2022-10-16T07:33:41;6.00;;;2.33;;
38465;SDS011;24244;51.950;5.902;2022-10-16T07:36:10;5.75;;;2.20;;
38465;SDS011;24244;51.950;5.902;2022-10-16T07:38:41;7.30;;;2.85;;
38465;SDS011;24244;51.950;5.902;2022-10-16T07:41:11;6.97;;;2.20;;
38465;SDS011;24244;51.950;5.902;2022-10-16T07:43:39;6.53;;;2.40;;
38465;SDS011;24244;51.950;5.902;2022-10-16T07:46:06;7.57;;;2.53;;
38465;SDS011;24244;51.950;5.902;2022-10-16T07:48:33;7.88;;;2.42;;
38465;SDS011;24244;51.950;5.902;2022-10-16T07:51:03;6.97;;;2.60;;
38465;SDS011;24244;51.950;5.902;2022-10-16T07:56:02;6.10;;;2.15;;
38465;SDS011;24244;51.950;5.902;2022-10-16T08:00:58;6.30;;;2.25;;
38465;SDS011;24244;51.950;5.902;2022-10-16T08:03:25;6.93;;;2.40;;
38465;SDS011;24244;51.950;5.902;2022-10-16T08:05:56;7.57;;;2.35;;
38465;SDS011;24244;51.950;5.902;2022-10-16T08:08:23;5.88;;;2.42;;
38465;SDS011;24244;51.950;5.902;2022-10-16T08:10:50;6.50;;;2.22;;
38465;SDS011;24244;51.950;5.902;2022-10-16T08:13:18;5.93;;;2.28;;
38465;SDS011;24244;51.950;5.902;2022-10-16T08:15:46;5.78;;;2.35;;
38465;SDS011;24244;51.950;5.902;2022-10-16T08:18:13;6.20;;;2.38;;
38465;SDS011;24244;51.950;5.902;2022-10-16T08:20:41;7.25;;;2.50;;
38465;SDS011;24244;51.950;5.902;2022-10-16T08:23:09;6.25;;;2.22;;
38465;SDS011;24244;51.950;5.902;2022-10-16T08:25:37;8.10;;;2.58;;
38465;SDS011;24244;51.950;5.902;2022-10-16T08:28:05;7.85;;;2.60;;
38465;SDS011;24244;51.950;5.902;2022-10-16T08:30:32;7.03;;;2.50;;
38465;SDS011;24244;51.950;5.902;2022-10-16T08:33:01;7.60;;;2.47;;
38465;SDS011;24244;51.950;5.902;2022-10-16T08:35:28;6.32;;;2.60;;
38465;SDS011;24244;51.950;5.902;2022-10-16T08:37:55;6.13;;;2.30;;
38465;SDS011;24244;51.950;5.902;2022-10-16T08:40:23;7.25;;;2.70;;
38465;SDS011;24244;51.950;5.902;2022-10-16T08:42:55;5.50;;;1.95;;
38465;SDS011;24244;51.950;5.902;2022-10-16T08:45:34;7.13;;;2.33;;
38465;SDS011;24244;51.950;5.902;2022-10-16T08:51:21;7.07;;;2.20;;
38465;SDS011;24244;51.950;5.902;2022-10-16T08:53:51;6.38;;;1.92;;
38465;SDS011;24244;51.950;5.902;2022-10-16T08:56:23;6.80;;;2.47;;
38465;SDS011;24244;51.950;5.902;2022-10-16T08:58:52;8.60;;;2.50;;
38465;SDS011;24244;51.950;5.902;2022-10-16T09:01:29;8.38;;;2.30;;
38465;SDS011;24244;51.950;5.902;2022-10-16T09:07:08;5.10;;;2.00;;
38465;SDS011;24244;51.950;5.902;2022-10-16T09:09:44;7.18;;;2.10;;
38465;SDS011;24244;51.950;5.902;2022-10-16T09:12:20;6.22;;;2.10;;
38465;SDS011;24244;51.950;5.902;2022-10-16T09:15:05;6.90;;;1.67;;
38465;SDS011;24244;51.950;5.902;2022-10-16T09:17:43;5.85;;;2.03;;
38465;SDS011;24244;51.950;5.902;2022-10-16T09:23:10;5.30;;;1.55;;
38465;SDS011;24244;51.950;5.902;2022-10-16T09:25:41;6.97;;;1.80;;
38465;SDS011;24244;51.950;5.902;2022-10-16T09:28:10;6.85;;;1.75;;
38465;SDS011;24244;51.950;5.902;2022-10-16T09:30:37;6.88;;;1.85;;
38465;SDS011;24244;51.950;5.902;2022-10-16T09:33:05;6.47;;;1.90;;
38465;SDS011;24244;51.950;5.902;2022-10-16T09:35:35;7.22;;;1.90;;
38465;SDS011;24244;51.950;5.902;2022-10-16T09:38:05;5.60;;;1.83;;
38465;SDS011;24244;51.950;5.902;2022-10-16T09:40:34;6.28;;;1.80;;
38465;SDS011;24244;51.950;5.902;2022-10-16T09:43:06;6.75;;;1.85;;
38465;SDS011;24244;51.950;5.902;2022-10-16T09:45:53;7.00;;;1.92;;
38465;SDS011;24244;51.950;5.902;2022-10-16T09:48:21;7.20;;;1.70;;
38465;SDS011;24244;51.950;5.902;2022-10-16T09:50:55;7.70;;;1.92;;
38465;SDS011;24244;51.950;5.902;2022-10-16T09:53:22;5.97;;;1.92;;
38465;SDS011;24244;51.950;5.902;2022-10-16T09:55:52;8.95;;;1.80;;
38465;SDS011;24244;51.950;5.902;2022-10-16T09:58:21;7.47;;;1.88;;
38465;SDS011;24244;51.950;5.902;2022-10-16T10:00:49;6.85;;;1.80;;
38465;SDS011;24244;51.950;5.902;2022-10-16T10:03:30;8.25;;;2.05;;
38465;SDS011;24244;51.950;5.902;2022-10-16T10:06:03;8.68;;;1.92;;
38465;SDS011;24244;51.950;5.902;2022-10-16T10:08:41;8.02;;;2.10;;
38465;SDS011;24244;51.950;5.902;2022-10-16T10:11:09;8.23;;;2.03;;
38465;SDS011;24244;51.950;5.902;2022-10-16T10:13:41;8.02;;;2.10;;
38465;SDS011;24244;51.950;5.902;2022-10-16T10:16:08;11.23;;;2.42;;
38465;SDS011;24244;51.950;5.902;2022-10-16T10:18:35;7.55;;;2.03;;
38465;SDS011;24244;51.950;5.902;2022-10-16T10:21:02;8.98;;;2.35;;
38465;SDS011;24244;51.950;5.902;2022-10-16T10:23:30;8.25;;;1.70;;
38465;SDS011;24244;51.950;5.902;2022-10-16T10:25:59;9.23;;;1.90;;
38465;SDS011;24244;51.950;5.902;2022-10-16T10:28:42;6.88;;;1.98;;
38465;SDS011;24244;51.950;5.902;2022-10-16T10:31:19;8.13;;;1.98;;
38465;SDS011;24244;51.950;5.902;2022-10-16T10:33:52;8.18;;;2.10;;
38465;SDS011;24244;51.950;5.902;2022-10-16T10:36:32;10.65;;;2.00;;
38465;SDS011;24244;51.950;5.902;2022-10-16T10:39:04;7.63;;;1.92;;
38465;SDS011;24244;51.950;5.902;2022-10-16T10:41:58;8.07;;;1.85;;
38465;SDS011;24244;51.950;5.902;2022-10-16T10:44:46;10.68;;;2.03;;
38465;SDS011;24244;51.950;5.902;2022-10-16T10:47:27;7.80;;;1.90;;
38465;SDS011;24244;51.950;5.902;2022-10-16T10:50:06;9.02;;;1.60;;
38465;SDS011;24244;51.950;5.902;2022-10-16T10:52:43;9.35;;;1.90;;
38465;SDS011;24244;51.950;5.902;2022-10-16T10:55:20;9.77;;;1.88;;
38465;SDS011;24244;51.950;5.902;2022-10-16T10:58:10;7.40;;;1.63;;
38465;SDS011;24244;51.950;5.902;2022-10-16T11:00:51;9.48;;;1.63;;
38465;SDS011;24244;51.950;5.902;2022-10-16T11:03:32;7.82;;;1.77;;
38465;SDS011;24244;51.950;5.902;2022-10-16T11:06:10;8.88;;;1.50;;
38465;SDS011;24244;51.950;5.902;2022-10-16T11:08:43;8.32;;;1.55;;
38465;SDS011;24244;51.950;5.902;2022-10-16T11:11:15;8.75;;;1.52;;
38465;SDS011;24244;51.950;5.902;2022-10-16T11:13:48;7.78;;;1.60;;
38465;SDS011;24244;51.950;5.902;2022-10-16T11:16:26;8.98;;;1.77;;
38465;SDS011;24244;51.950;5.902;2022-10-16T11:18:56;10.57;;;2.00;;
38465;SDS011;24244;51.950;5.902;2022-10-16T11:21:29;7.05;;;1.85;;
38465;SDS011;24244;51.950;5.902;2022-10-16T11:24:03;8.80;;;1.60;;
38465;SDS011;24244;51.950;5.902;2022-10-16T11:26:39;7.97;;;1.70;;
38465;SDS011;24244;51.950;5.902;2022-10-16T11:29:10;9.32;;;1.48;;
38465;SDS011;24244;51.950;5.902;2022-10-16T11:31:45;6.70;;;1.40;;
38465;SDS011;24244;51.950;5.902;2022-10-16T11:34:17;9.13;;;1.63;;
38465;SDS011;24244;51.950;5.902;2022-10-16T11:36:52;9.57;;;1.60;;
38465;SDS011;24244;51.950;5.902;2022-10-16T11:39:24;12.05;;;1.63;;
38465;SDS011;24244;51.950;5.902;2022-10-16T11:41:53;7.50;;;1.98;;
38465;SDS011;24244;51.950;5.902;2022-10-16T11:47:15;6.15;;;1.38;;
38465;SDS011;24244;51.950;5.902;2022-10-16T11:50:13;7.97;;;1.45;;
38465;SDS011;24244;51.950;5.902;2022-10-16T11:52:49;10.40;;;1.75;;
38465;SDS011;24244;51.950;5.902;2022-10-16T11:55:20;5.90;;;1.67;;
38465;SDS011;24244;51.950;5.902;2022-10-16T11:57:51;12.30;;;1.80;;
38465;SDS011;24244;51.950;5.902;2022-10-16T12:00:21;8.02;;;1.70;;
38465;SDS011;24244;51.950;5.902;2022-10-16T12:02:55;7.63;;;1.58;;
38465;SDS011;24244;51.950;5.902;2022-10-16T12:05:31;8.10;;;1.75;;
38465;SDS011;24244;51.950;5.902;2022-10-16T12:08:10;8.18;;;1.38;;
38465;SDS011;24244;51.950;5.902;2022-10-16T12:10:49;6.80;;;1.50;;
38465;SDS011;24244;51.950;5.902;2022-10-16T12:13:29;7.78;;;1.83;;
38465;SDS011;24244;51.950;5.902;2022-10-16T12:16:04;7.82;;;1.55;;
38465;SDS011;24244;51.950;5.902;2022-10-16T12:18:47;9.68;;;1.80;;
38465;SDS011;24244;51.950;5.902;2022-10-16T12:21:15;9.93;;;2.17;;
38465;SDS011;24244;51.950;5.902;2022-10-16T12:23:48;8.63;;;1.90;;
38465;SDS011;24244;51.950;5.902;2022-10-16T12:26:23;6.50;;;1.33;;
38465;SDS011;24244;51.950;5.902;2022-10-16T12:28:51;7.63;;;1.50;;
38465;SDS011;24244;51.950;5.902;2022-10-16T12:31:18;8.02;;;1.75;;
38465;SDS011;24244;51.950;5.902;2022-10-16T12:33:53;6.75;;;1.27;;
38465;SDS011;24244;51.950;5.902;2022-10-16T12:36:27;7.22;;;1.70;;
38465;SDS011;24244;51.950;5.902;2022-10-16T12:38:56;6.45;;;1.40;;
38465;SDS011;24244;51.950;5.902;2022-10-16T12:41:24;9.40;;;1.80;;
38465;SDS011;24244;51.950;5.902;2022-10-16T12:43:52;8.25;;;1.50;;
38465;SDS011;24244;51.950;5.902;2022-10-16T12:46:34;8.18;;;1.58;;
38465;SDS011;24244;51.950;5.902;2022-10-16T12:49:21;9.35;;;1.58;;
38465;SDS011;24244;51.950;5.902;2022-10-16T12:51:55;6.90;;;1.60;;
38465;SDS011;24244;51.950;5.902;2022-10-16T12:54:22;7.28;;;1.50;;
38465;SDS011;24244;51.950;5.902;2022-10-16T12:56:59;6.90;;;1.48;;
38465;SDS011;24244;51.950;5.902;2022-10-16T12:59:38;9.15;;;1.63;;
38465;SDS011;24244;51.950;5.902;2022-10-16T13:02:23;7.68;;;1.63;;
38465;SDS011;24244;51.950;5.902;2022-10-16T13:05:17;9.43;;;1.60;;
38465;SDS011;24244;51.950;5.902;2022-10-16T13:07:55;11.00;;;1.80;;
38465;SDS011;24244;51.950;5.902;2022-10-16T13:13:05;6.35;;;1.48;;
38465;SDS011;24244;51.950;5.902;2022-10-16T13:15:51;8.23;;;1.35;;
38465;SDS011;24244;51.950;5.902;2022-10-16T13:18:26;8.20;;;1.50;;
38465;SDS011;24244;51.950;5.902;2022-10-16T13:21:02;7.72;;;1.50;;
38465;SDS011;24244;51.950;5.902;2022-10-16T13:23:36;7.07;;;1.48;;
38465;SDS011;24244;51.950;5.902;2022-10-16T13:26:14;7.05;;;1.40;;
38465;SDS011;24244;51.950;5.902;2022-10-16T13:28:49;8.52;;;1.60;;
38465;SDS011;24244;51.950;5.902;2022-10-16T13:31:17;8.15;;;1.52;;
38465;SDS011;24244;51.950;5.902;2022-10-16T13:33:47;5.65;;;1.27;;
38465;SDS011;24244;51.950;5.902;2022-10-16T13:36:20;5.72;;;1.33;;
38465;SDS011;24244;51.950;5.902;2022-10-16T13:38:49;6.88;;;1.55;;
38465;SDS011;24244;51.950;5.902;2022-10-16T13:41:28;6.35;;;1.38;;
38465;SDS011;24244;51.950;5.902;2022-10-16T13:43:55;7.65;;;1.35;;
38465;SDS011;24244;51.950;5.902;2022-10-16T13:46:23;7.93;;;1.30;;
38465;SDS011;24244;51.950;5.902;2022-10-16T13:48:57;9.60;;;1.58;;
38465;SDS011;24244;51.950;5.902;2022-10-16T13:51:30;6.47;;;1.23;;
38465;SDS011;24244;51.950;5.902;2022-10-16T13:53:57;8.70;;;1.33;;
38465;SDS011;24244;51.950;5.902;2022-10-16T13:56:25;8.05;;;1.45;;
38465;SDS011;24244;51.950;5.902;2022-10-16T13:58:57;6.95;;;1.40;;
38465;SDS011;24244;51.950;5.902;2022-10-16T14:01:26;6.05;;;1.40;;
38465;SDS011;24244;51.950;5.902;2022-10-16T14:04:01;5.38;;;1.33;;
38465;SDS011;24244;51.950;5.902;2022-10-16T14:06:32;7.80;;;1.80;;
38465;SDS011;24244;51.950;5.902;2022-10-16T14:09:01;5.03;;;1.23;;
38465;SDS011;24244;51.950;5.902;2022-10-16T14:11:32;6.25;;;1.33;;
38465;SDS011;24244;51.950;5.902;2022-10-16T14:14:03;8.70;;;1.63;;
38465;SDS011;24244;51.950;5.902;2022-10-16T14:16:31;7.37;;;1.70;;
38465;SDS011;24244;51.950;5.902;2022-10-16T14:18:59;7.07;;;1.23;;
38465;SDS011;24244;51.950;5.902;2022-10-16T14:21:27;7.28;;;1.35;;
38465;SDS011;24244;51.950;5.902;2022-10-16T14:23:56;9.30;;;1.60;;
38465;SDS011;24244;51.950;5.902;2022-10-16T14:26:40;7.65;;;1.20;;
38465;SDS011;24244;51.950;5.902;2022-10-16T14:29:15;7.30;;;1.50;;
38465;SDS011;24244;51.950;5.902;2022-10-16T14:31:53;7.50;;;1.60;;
38465;SDS011;24244;51.950;5.902;2022-10-16T14:34:29;7.55;;;1.50;;
38465;SDS011;24244;51.950;5.902;2022-10-16T14:36:59;8.60;;;1.63;;
38465;SDS011;24244;51.950;5.902;2022-10-16T14:39:32;6.68;;;1.48;;
38465;SDS011;24244;51.950;5.902;2022-10-16T14:42:00;7.32;;;1.50;;
38465;SDS011;24244;51.950;5.902;2022-10-16T14:44:28;6.20;;;1.30;;
38465;SDS011;24244;51.950;5.902;2022-10-16T14:47:06;6.47;;;1.20;;
38465;SDS011;24244;51.950;5.902;2022-10-16T14:49:35;6.85;;;1.60;;
38465;SDS011;24244;51.950;5.902;2022-10-16T14:52:04;7.25;;;1.45;;
38465;SDS011;24244;51.950;5.902;2022-10-16T14:54:36;8.38;;;1.92;;
38465;SDS011;24244;51.950;5.902;2022-10-16T14:57:03;6.00;;;1.60;;
38465;SDS011;24244;51.950;5.902;2022-10-16T14:59:32;6.78;;;1.40;;
38465;SDS011;24244;51.950;5.902;2022-10-16T15:02:05;6.72;;;1.77;;
38465;SDS011;24244;51.950;5.902;2022-10-16T15:04:42;6.57;;;1.52;;
38465;SDS011;24244;51.950;5.902;2022-10-16T15:07:09;6.80;;;1.30;;
38465;SDS011;24244;51.950;5.902;2022-10-16T15:09:40;7.30;;;1.65;;
38465;SDS011;24244;51.950;5.902;2022-10-16T15:12:14;7.78;;;1.60;;
38465;SDS011;24244;51.950;5.902;2022-10-16T15:14:41;7.60;;;1.40;;
38465;SDS011;24244;51.950;5.902;2022-10-16T15:17:08;5.47;;;1.23;;
38465;SDS011;24244;51.950;5.902;2022-10-16T15:19:36;7.60;;;1.57;;
38465;SDS011;24244;51.950;5.902;2022-10-16T15:22:03;4.72;;;1.17;;
38465;SDS011;24244;51.950;5.902;2022-10-16T15:24:29;7.55;;;1.33;;
38465;SDS011;24244;51.950;5.902;2022-10-16T15:26:58;8.32;;;1.45;;
38465;SDS011;24244;51.950;5.902;2022-10-16T15:29:25;6.43;;;1.35;;